• Join FlightAware (Why Join?)
  • Login
  • US Flag 
01:55AM EST


 

Airport Tracker/Info


-or-


 

Live Flight TrackerFlight Track Log ✈ JZA8279 ✈ 04-May-2013 ✈ CYPR - CYVR

Flight Track Log - Related Links

Times and Time Zones

All times are in EDT time to prevent confusion due to time zone crossing. See the JZA8279 flight status page for this flight to view local times or setup timezone preferences in your user account.

Time Position Orientation Groundspeed Altitude Reporting Facility
EDT Latitude Longitude Course Direction KTS MPH feet Rate Location/Type
01:44PM 54.2333 -130.4333 135° Southeast 130 150 1,900  Level Vancouver Center
01:45PM 54.2167 -130.4000 131° Southeast 140 161 3,600 1,560 Climbing Vancouver Center
01:46PM 54.1833 -130.3333 130° Southeast 150 173 5,100 1,320 Climbing Vancouver Center
01:47PM 54.1667 -130.2667 113° Southeast 170 196 6,300 1,260 Climbing Vancouver Center
01:48PM 54.1167 -130.2000 142° Southeast 180 207 7,700 1,320 Climbing Vancouver Center
01:49PM 53.9227 -129.8378 135° Southeast  Level FlightAware Approximate
01:49PM 54.0833 -130.1500 139° Southeast 190 219 9,000  Level Vancouver Center
01:50PM 54.0333 -130.0833 142° Southeast 190 219 10,600 1,440 Climbing Vancouver Center
01:51PM 54.0000 -130.0167 130° Southeast 190 219 11,900 1,200 Climbing Vancouver Center
01:52PM 53.9667 -129.9500 130° Southeast 200 230 13,100 1,200 Climbing Vancouver Center
01:53PM 53.9333 -129.9000 139° Southeast 200 230 14,300 1,200 Climbing Vancouver Center
01:54PM 53.8833 -129.8333 142° Southeast 210 242 15,500 1,200 Climbing Vancouver Center
01:55PM 53.8333 -129.7333 130° Southeast 210 242 16,700 1,140 Climbing Vancouver Center
01:56PM 53.8000 -129.6833 138° Southeast 210 242 17,800 840 Climbing Vancouver Center
01:57PM 53.7500 -129.6167 142° Southeast 210 242 18,400 840 Climbing Vancouver Center
01:58PM 53.7333 -129.5500 113° Southeast 210 242 19,500 1,020 Climbing Vancouver Center
01:59PM 53.6833 -129.4667 135° Southeast 210 242 20,500 960 Climbing Vancouver Center
02:00PM 53.6333 -129.4000 142° Southeast 210 242 21,500 900 Climbing Vancouver Center
02:01PM 53.6000 -129.3333 130° Southeast 210 242 22,300 720 Climbing Vancouver Center
02:02PM 53.5500 -129.2833 149° Southeast 210 242 23,000 300 Climbing Vancouver Center
02:03PM 53.5167 -129.1833 119° Southeast 230 265 23,000  Level Vancouver Center
02:04PM 53.4500 -129.1000 143° Southeast 260 299 23,000  Level Vancouver Center
02:05PM 53.4000 -129.0000 130° Southeast 280 322 23,000  Level Vancouver Center
02:06PM 53.3333 -128.9167 143° Southeast 290 334 23,000  Level Vancouver Center
02:07PM 53.3000 -128.8333 124° Southeast 290 334 23,000  Level Vancouver Center
02:08PM 53.2333 -128.7333 138° Southeast 290 334 23,000  Level Vancouver Center
02:09PM 53.1667 -128.6500 143° Southeast 290 334 23,000  Level Vancouver Center
02:10PM 53.1167 -128.5500 130° Southeast 290 334 23,000  Level Vancouver Center
02:11PM 53.0500 -128.4333 134° Southeast 290 334 23,000  Level Vancouver Center
02:12PM 53.0000 -128.3500 135° Southeast 290 334 23,000  Level Vancouver Center
02:13PM 52.9333 -128.2500 138° Southeast 300 345 23,000  Level Vancouver Center
02:14PM 52.8833 -128.1667 135° Southeast 290 334 23,000  Level Vancouver Center
02:15PM 52.8167 -128.0833 143° Southeast 290 334 23,000  Level Vancouver Center
02:16PM 52.7500 -127.9667 133° Southeast 290 334 23,000  Level Vancouver Center
02:17PM 52.7167 -127.8833 123° Southeast 290 334 23,000  Level Vancouver Center
02:18PM 52.6500 -127.7833 138° Southeast 290 334 23,000  Level Vancouver Center
02:19PM 52.5833 -127.7000 143° Southeast 290 334 23,000  Level Vancouver Center
02:20PM 52.5167 -127.6167 143° Southeast 290 334 23,000  Level Vancouver Center
02:21PM 52.4667 -127.5333 135° Southeast 300 345 23,000  Level Vancouver Center
02:22PM 52.4000 -127.4333 138° Southeast 300 345 23,000  Level Vancouver Center
02:23PM 52.3500 -127.3167 125° Southeast 300 345 23,000  Level Vancouver Center
02:24PM 52.2833 -127.2333 143° Southeast 300 345 23,000  Level Vancouver Center
02:25PM 52.2167 -127.1500 143° Southeast 300 345 23,000  Level Vancouver Center
02:26PM 52.1667 -127.0667 134° Southeast 300 345 23,000  Level Vancouver Center
02:27PM 52.1000 -126.9500 133° Southeast 300 345 23,000  Level Vancouver Center
02:28PM 52.0333 -126.8667 142° Southeast 300 345 23,000  Level Vancouver Center
02:29PM 51.9667 -126.7833 142° Southeast 300 345 23,000  Level Vancouver Center
02:30PM 51.9000 -126.7000 142° Southeast 300 345 23,000  Level Vancouver Center
02:31PM 51.8667 -126.5833 115° Southeast 300 345 23,000  Level Vancouver Center
02:32PM 51.8000 -126.5000 142° Southeast 300 345 23,000  Level Vancouver Center
02:33PM 51.7333 -126.4167 142° Southeast 300 345 23,000  Level Vancouver Center
02:34PM 51.6667 -126.3333 142° Southeast 300 345 23,000  Level Vancouver Center
02:35PM 51.6000 -126.2167 133° Southeast 300 345 23,000  Level Vancouver Center
02:36PM 51.5500 -126.1333 134° Southeast 300 345 23,000  Level Vancouver Center
02:37PM 51.4833 -126.0500 142° Southeast 300 345 23,000  Level Vancouver Center
02:38PM 51.4167 -125.9667 142° Southeast 310 357 23,000  Level Vancouver Center
02:39PM 51.3500 -125.8500 132° Southeast 300 345 23,000  Level Vancouver Center
02:40PM 51.3000 -125.7667 134° Southeast 300 345 23,000  Level Vancouver Center
02:41PM 51.2333 -125.6833 142° Southeast 300 345 23,000  Level Vancouver Center
02:42PM 51.1667 -125.6167 148° Southeast 300 345 23,000  Level Vancouver Center
02:43PM 51.1167 -125.5333 134° Southeast 300 345 23,000  Level Vancouver Center
02:44PM 51.0500 -125.4167 132° Southeast 300 345 23,000  Level Vancouver Center
02:45PM 50.9833 -125.3333 142° Southeast 300 345 23,000  Level Vancouver Center
02:46PM 50.9167 -125.2500 142° Southeast 300 345 23,000  Level Vancouver Center
02:47PM 50.8667 -125.1667 134° Southeast 300 345 23,000  Level Vancouver Center
02:48PM 50.8000 -125.1000 148° Southeast 290 334 23,000  Level Vancouver Center
02:49PM 50.7333 -124.9833 132° Southeast 290 334 23,000  Level Vancouver Center
02:50PM 50.6667 -124.9000 142° Southeast 290 334 23,000  Level Vancouver Center
02:51PM 50.6000 -124.8167 142° Southeast 290 334 23,000  Level Vancouver Center
02:52PM 50.5500 -124.7500 140° Southeast 290 334 23,000  Level Vancouver Center
02:53PM 50.4833 -124.6333 132° Southeast 290 334 23,000 -240 Level Vancouver Center
02:54PM 50.4167 -124.5667 147° Southeast 300 345 22,600 -900 Descending Vancouver Center
02:55PM 50.3500 -124.4833 141° Southeast 320 368 21,300 -1,200 Descending Vancouver Center
02:56PM 50.2833 -124.3667 132° Southeast 330 380 20,200 -1,140 Descending Vancouver Center
02:57PM 50.2167 -124.3000 147° Southeast 320 368 19,100 -1,200 Descending Vancouver Center
02:58PM 50.1500 -124.2167 141° Southeast 320 368 17,900 -1,200 Descending Vancouver Center
02:59PM 50.0833 -124.1167 136° Southeast 310 357 16,800 -1,140 Descending Vancouver Center
03:00PM 50.0167 -124.0333 141° Southeast 320 368 15,700 -1,200 Descending Vancouver Center
03:01PM 49.9500 -123.9333 136° Southeast 310 357 14,500 -1,140 Descending Vancouver Center
03:02PM 49.8833 -123.8500 141° Southeast 300 345 13,500 -1,080 Descending Vancouver Center
03:03PM 49.8167 -123.7667 141° Southeast 300 345 12,400 -1,080 Descending Vancouver Center
03:04PM 49.7500 -123.7000 147° Southeast 290 334 11,400 -1,080 Descending Vancouver Center
03:05PM 49.6833 -123.6500 154° Southeast 300 345 10,300 -720 Descending Vancouver Center
03:06PM 49.6167 -123.6000 154° Southeast 280 322 10,000 -180 Descending Vancouver Center
03:07PM 49.5500 -123.5500 154° Southeast 270 311 10,000  Level Vancouver Center
03:08PM 49.4833 -123.4667 141° Southeast 270 311 10,000 -720 Level Vancouver Center
03:09PM 49.4167 -123.4167 154° Southeast 280 322 8,600 -1,740 Descending Vancouver Center
03:10PM 49.3500 -123.3667 154° Southeast 260 299 6,600 -1,800 Descending Vancouver Center
03:11PM 49.2833 -123.3167 154° Southeast 260 299 5,000 -840 Descending Vancouver Center
03:12PM 49.2667 -123.2167 104° East 250 288 5,000  Level Vancouver Center
03:13PM 49.2500 -123.1333 107° East 250 288 5,000 -660 Level Vancouver Center
03:14PM 49.2333 -123.0000 101° East 240 276 3,700 -1,020 Descending Vancouver Center
03:15PM 49.2167 -122.9500 117° Southeast 210 242 3,000 -720 Descending Vancouver Center
03:16PM 49.1667 -122.9833 204° Southwest 180 207 2,300 -780 Descending Vancouver Center
03:17PM 49.1667 -123.0667 270° West 170 196 1,500 -840 Descending Vancouver Center